sensor_id;sensor_type;location;lat;lon;timestamp;P1;durP1;ratioP1;P2;durP2;ratioP2
37205;SDS011;23099;42.636;23.198;2022-11-23T00:01:19;16.95;;;6.47;;
37205;SDS011;23099;42.636;23.198;2022-11-23T00:06:14;12.30;;;5.55;;
37205;SDS011;23099;42.636;23.198;2022-11-23T00:08:43;8.40;;;4.05;;
37205;SDS011;23099;42.636;23.198;2022-11-23T00:11:10;11.10;;;4.93;;
37205;SDS011;23099;42.636;23.198;2022-11-23T00:13:38;15.70;;;5.13;;
37205;SDS011;23099;42.636;23.198;2022-11-23T00:16:07;9.57;;;3.83;;
37205;SDS011;23099;42.636;23.198;2022-11-23T00:18:35;13.63;;;3.45;;
37205;SDS011;23099;42.636;23.198;2022-11-23T00:21:04;8.23;;;2.92;;
37205;SDS011;23099;42.636;23.198;2022-11-23T00:23:32;10.57;;;2.95;;
37205;SDS011;23099;42.636;23.198;2022-11-23T00:25:58;8.50;;;3.28;;
37205;SDS011;23099;42.636;23.198;2022-11-23T00:28:25;9.73;;;3.67;;
37205;SDS011;23099;42.636;23.198;2022-11-23T00:30:52;8.90;;;4.25;;
37205;SDS011;23099;42.636;23.198;2022-11-23T00:33:20;10.88;;;3.70;;
37205;SDS011;23099;42.636;23.198;2022-11-23T00:35:47;8.98;;;3.63;;
37205;SDS011;23099;42.636;23.198;2022-11-23T00:38:14;8.65;;;2.65;;
37205;SDS011;23099;42.636;23.198;2022-11-23T00:40:41;7.30;;;2.92;;
37205;SDS011;23099;42.636;23.198;2022-11-23T00:43:07;7.30;;;2.92;;
37205;SDS011;23099;42.636;23.198;2022-11-23T00:45:34;9.20;;;2.63;;
37205;SDS011;23099;42.636;23.198;2022-11-23T00:48:01;11.00;;;3.17;;
37205;SDS011;23099;42.636;23.198;2022-11-23T00:50:29;8.05;;;3.20;;
37205;SDS011;23099;42.636;23.198;2022-11-23T00:52:56;9.00;;;2.80;;
37205;SDS011;23099;42.636;23.198;2022-11-23T00:55:23;16.58;;;4.20;;
37205;SDS011;23099;42.636;23.198;2022-11-23T00:57:49;11.52;;;3.40;;
37205;SDS011;23099;42.636;23.198;2022-11-23T01:00:16;8.23;;;3.30;;
37205;SDS011;23099;42.636;23.198;2022-11-23T01:02:43;10.13;;;3.65;;
37205;SDS011;23099;42.636;23.198;2022-11-23T01:05:10;9.00;;;3.70;;
37205;SDS011;23099;42.636;23.198;2022-11-23T01:07:38;8.23;;;3.22;;
37205;SDS011;23099;42.636;23.198;2022-11-23T01:10:05;8.35;;;3.30;;
37205;SDS011;23099;42.636;23.198;2022-11-23T01:12:32;28.80;;;8.20;;
37205;SDS011;23099;42.636;23.198;2022-11-23T01:14:59;20.58;;;5.97;;
37205;SDS011;23099;42.636;23.198;2022-11-23T01:17:26;9.93;;;4.05;;
37205;SDS011;23099;42.636;23.198;2022-11-23T01:19:53;12.80;;;3.95;;
37205;SDS011;23099;42.636;23.198;2022-11-23T01:22:19;10.32;;;3.25;;
37205;SDS011;23099;42.636;23.198;2022-11-23T01:24:48;9.38;;;3.17;;
37205;SDS011;23099;42.636;23.198;2022-11-23T01:27:15;8.88;;;3.13;;
37205;SDS011;23099;42.636;23.198;2022-11-23T01:29:41;7.60;;;2.75;;
37205;SDS011;23099;42.636;23.198;2022-11-23T01:32:08;6.38;;;2.15;;
37205;SDS011;23099;42.636;23.198;2022-11-23T01:34:35;7.15;;;1.95;;
37205;SDS011;23099;42.636;23.198;2022-11-23T01:37:02;6.68;;;2.15;;
37205;SDS011;23099;42.636;23.198;2022-11-23T01:39:28;8.32;;;2.75;;
37205;SDS011;23099;42.636;23.198;2022-11-23T01:41:56;11.73;;;2.92;;
37205;SDS011;23099;42.636;23.198;2022-11-23T01:44:24;5.47;;;2.47;;
37205;SDS011;23099;42.636;23.198;2022-11-23T01:46:53;7.25;;;2.25;;
37205;SDS011;23099;42.636;23.198;2022-11-23T01:49:22;5.60;;;2.40;;
37205;SDS011;23099;42.636;23.198;2022-11-23T01:51:51;9.00;;;2.20;;
37205;SDS011;23099;42.636;23.198;2022-11-23T01:54:23;5.30;;;2.20;;
37205;SDS011;23099;42.636;23.198;2022-11-23T01:56:52;6.97;;;2.22;;
37205;SDS011;23099;42.636;23.198;2022-11-23T01:59:22;7.05;;;2.55;;
37205;SDS011;23099;42.636;23.198;2022-11-23T02:01:51;6.90;;;2.90;;
37205;SDS011;23099;42.636;23.198;2022-11-23T02:04:20;7.53;;;2.45;;
37205;SDS011;23099;42.636;23.198;2022-11-23T02:06:49;10.20;;;2.95;;
37205;SDS011;23099;42.636;23.198;2022-11-23T02:09:16;8.30;;;2.90;;
37205;SDS011;23099;42.636;23.198;2022-11-23T02:11:43;9.13;;;2.67;;
37205;SDS011;23099;42.636;23.198;2022-11-23T02:14:10;7.18;;;3.28;;
37205;SDS011;23099;42.636;23.198;2022-11-23T02:16:39;5.73;;;2.63;;
37205;SDS011;23099;42.636;23.198;2022-11-23T02:21:38;5.65;;;2.47;;
37205;SDS011;23099;42.636;23.198;2022-11-23T02:24:06;10.10;;;3.67;;
37205;SDS011;23099;42.636;23.198;2022-11-23T02:26:39;8.45;;;3.05;;
37205;SDS011;23099;42.636;23.198;2022-11-23T02:31:34;8.10;;;3.55;;
37205;SDS011;23099;42.636;23.198;2022-11-23T02:34:01;20.45;;;7.18;;
37205;SDS011;23099;42.636;23.198;2022-11-23T02:36:36;10.32;;;3.35;;
37205;SDS011;23099;42.636;23.198;2022-11-23T02:39:07;13.27;;;3.88;;
37205;SDS011;23099;42.636;23.198;2022-11-23T02:41:41;479.38;;;21.23;;
37205;SDS011;23099;42.636;23.198;2022-11-23T02:46:59;16.30;;;5.15;;
37205;SDS011;23099;42.636;23.198;2022-11-23T02:49:26;14.30;;;4.80;;
37205;SDS011;23099;42.636;23.198;2022-11-23T02:51:53;14.38;;;3.38;;
37205;SDS011;23099;42.636;23.198;2022-11-23T02:54:20;13.60;;;4.07;;
37205;SDS011;23099;42.636;23.198;2022-11-23T02:56:48;10.70;;;3.20;;
37205;SDS011;23099;42.636;23.198;2022-11-23T02:59:15;9.77;;;3.15;;
37205;SDS011;23099;42.636;23.198;2022-11-23T03:01:41;6.25;;;2.30;;
37205;SDS011;23099;42.636;23.198;2022-11-23T03:04:08;6.65;;;2.50;;
37205;SDS011;23099;42.636;23.198;2022-11-23T03:06:35;4.40;;;1.92;;
37205;SDS011;23099;42.636;23.198;2022-11-23T03:09:02;6.40;;;2.55;;
37205;SDS011;23099;42.636;23.198;2022-11-23T03:11:29;6.68;;;2.97;;
37205;SDS011;23099;42.636;23.198;2022-11-23T03:13:58;8.05;;;3.65;;
37205;SDS011;23099;42.636;23.198;2022-11-23T03:18:51;10.60;;;3.63;;
37205;SDS011;23099;42.636;23.198;2022-11-23T03:21:18;9.20;;;3.60;;
37205;SDS011;23099;42.636;23.198;2022-11-23T03:23:45;11.27;;;4.38;;
37205;SDS011;23099;42.636;23.198;2022-11-23T03:26:11;10.07;;;3.92;;
37205;SDS011;23099;42.636;23.198;2022-11-23T03:28:38;7.85;;;3.92;;
37205;SDS011;23099;42.636;23.198;2022-11-23T03:31:07;9.73;;;4.57;;
37205;SDS011;23099;42.636;23.198;2022-11-23T03:33:34;8.88;;;3.83;;
37205;SDS011;23099;42.636;23.198;2022-11-23T03:36:00;12.80;;;3.95;;
37205;SDS011;23099;42.636;23.198;2022-11-23T03:38:27;12.43;;;5.43;;
37205;SDS011;23099;42.636;23.198;2022-11-23T03:40:54;8.70;;;3.92;;
37205;SDS011;23099;42.636;23.198;2022-11-23T03:43:21;11.32;;;4.53;;
37205;SDS011;23099;42.636;23.198;2022-11-23T03:45:48;8.32;;;4.22;;
37205;SDS011;23099;42.636;23.198;2022-11-23T03:48:17;6.13;;;2.67;;
37205;SDS011;23099;42.636;23.198;2022-11-23T03:50:44;11.70;;;4.38;;
37205;SDS011;23099;42.636;23.198;2022-11-23T03:53:11;19.05;;;12.15;;
37205;SDS011;23099;42.636;23.198;2022-11-23T03:55:38;33.83;;;27.75;;
37205;SDS011;23099;42.636;23.198;2022-11-23T03:58:04;42.38;;;35.72;;
37205;SDS011;23099;42.636;23.198;2022-11-23T04:00:31;12.55;;;4.53;;
37205;SDS011;23099;42.636;23.198;2022-11-23T04:02:58;6.13;;;2.08;;
37205;SDS011;23099;42.636;23.198;2022-11-23T04:05:26;2.67;;;1.02;;
37205;SDS011;23099;42.636;23.198;2022-11-23T04:07:53;4.72;;;0.90;;
37205;SDS011;23099;42.636;23.198;2022-11-23T04:10:20;4.43;;;0.90;;
37205;SDS011;23099;42.636;23.198;2022-11-23T04:12:49;5.10;;;0.80;;
37205;SDS011;23099;42.636;23.198;2022-11-23T04:15:16;3.15;;;0.77;;
37205;SDS011;23099;42.636;23.198;2022-11-23T04:17:44;2.95;;;0.88;;
37205;SDS011;23099;42.636;23.198;2022-11-23T04:20:11;17.77;;;3.35;;
37205;SDS011;23099;42.636;23.198;2022-11-23T04:22:39;5.88;;;1.30;;
37205;SDS011;23099;42.636;23.198;2022-11-23T04:25:06;6.20;;;3.35;;
37205;SDS011;23099;42.636;23.198;2022-11-23T04:27:34;8.38;;;4.25;;
37205;SDS011;23099;42.636;23.198;2022-11-23T04:30:01;8.65;;;6.30;;
37205;SDS011;23099;42.636;23.198;2022-11-23T04:32:28;6.32;;;2.63;;
37205;SDS011;23099;42.636;23.198;2022-11-23T04:34:55;5.65;;;1.38;;
37205;SDS011;23099;42.636;23.198;2022-11-23T04:37:21;4.50;;;0.80;;
37205;SDS011;23099;42.636;23.198;2022-11-23T04:39:49;3.95;;;0.60;;
37205;SDS011;23099;42.636;23.198;2022-11-23T04:42:16;6.05;;;0.60;;
37205;SDS011;23099;42.636;23.198;2022-11-23T04:44:43;8.05;;;1.42;;
37205;SDS011;23099;42.636;23.198;2022-11-23T04:47:09;5.35;;;1.10;;
37205;SDS011;23099;42.636;23.198;2022-11-23T04:49:37;2.70;;;0.70;;
37205;SDS011;23099;42.636;23.198;2022-11-23T04:52:04;3.10;;;0.50;;
37205;SDS011;23099;42.636;23.198;2022-11-23T04:54:31;3.15;;;0.63;;
37205;SDS011;23099;42.636;23.198;2022-11-23T04:56:59;4.03;;;0.80;;
37205;SDS011;23099;42.636;23.198;2022-11-23T04:59:26;15.40;;;12.55;;
37205;SDS011;23099;42.636;23.198;2022-11-23T05:01:53;15.30;;;10.40;;
37205;SDS011;23099;42.636;23.198;2022-11-23T05:04:19;9.98;;;2.25;;
37205;SDS011;23099;42.636;23.198;2022-11-23T05:06:46;3.42;;;0.77;;
37205;SDS011;23099;42.636;23.198;2022-11-23T05:09:13;9.18;;;1.05;;
37205;SDS011;23099;42.636;23.198;2022-11-23T05:11:40;4.22;;;0.68;;
37205;SDS011;23099;42.636;23.198;2022-11-23T05:14:08;3.75;;;0.57;;
37205;SDS011;23099;42.636;23.198;2022-11-23T05:16:34;5.85;;;1.23;;
37205;SDS011;23099;42.636;23.198;2022-11-23T05:19:01;9.15;;;1.70;;
37205;SDS011;23099;42.636;23.198;2022-11-23T05:21:28;4.82;;;0.70;;
37205;SDS011;23099;42.636;23.198;2022-11-23T05:23:55;6.00;;;2.08;;
37205;SDS011;23099;42.636;23.198;2022-11-23T05:26:22;7.93;;;2.10;;
37205;SDS011;23099;42.636;23.198;2022-11-23T05:28:48;7.60;;;2.00;;
37205;SDS011;23099;42.636;23.198;2022-11-23T05:31:16;7.60;;;2.47;;
37205;SDS011;23099;42.636;23.198;2022-11-23T05:33:43;10.00;;;2.92;;
37205;SDS011;23099;42.636;23.198;2022-11-23T05:36:10;10.77;;;4.82;;
37205;SDS011;23099;42.636;23.198;2022-11-23T05:38:38;16.30;;;8.15;;
37205;SDS011;23099;42.636;23.198;2022-11-23T05:41:04;19.58;;;9.80;;
37205;SDS011;23099;42.636;23.198;2022-11-23T05:43:31;11.02;;;3.42;;
37205;SDS011;23099;42.636;23.198;2022-11-23T05:45:58;14.32;;;4.03;;
37205;SDS011;23099;42.636;23.198;2022-11-23T05:48:26;12.73;;;4.03;;
37205;SDS011;23099;42.636;23.198;2022-11-23T05:50:53;10.43;;;4.45;;
37205;SDS011;23099;42.636;23.198;2022-11-23T05:53:20;15.40;;;4.13;;
37205;SDS011;23099;42.636;23.198;2022-11-23T05:55:47;9.23;;;3.30;;
37205;SDS011;23099;42.636;23.198;2022-11-23T05:58:13;7.45;;;2.45;;
37205;SDS011;23099;42.636;23.198;2022-11-23T06:00:40;8.25;;;2.38;;
37205;SDS011;23099;42.636;23.198;2022-11-23T06:03:07;12.38;;;2.58;;
37205;SDS011;23099;42.636;23.198;2022-11-23T06:05:35;8.10;;;2.83;;
37205;SDS011;23099;42.636;23.198;2022-11-23T06:08:03;7.28;;;2.33;;
37205;SDS011;23099;42.636;23.198;2022-11-23T06:10:30;5.57;;;2.05;;
37205;SDS011;23099;42.636;23.198;2022-11-23T06:13:00;8.57;;;2.00;;
37205;SDS011;23099;42.636;23.198;2022-11-23T06:15:27;16.63;;;9.13;;
37205;SDS011;23099;42.636;23.198;2022-11-23T06:17:57;18.20;;;11.70;;
37205;SDS011;23099;42.636;23.198;2022-11-23T06:20:25;20.65;;;12.45;;
37205;SDS011;23099;42.636;23.198;2022-11-23T06:22:54;32.17;;;14.55;;
37205;SDS011;23099;42.636;23.198;2022-11-23T06:25:22;254.85;;;21.77;;
37205;SDS011;23099;42.636;23.198;2022-11-23T06:27:52;99.43;;;19.42;;
37205;SDS011;23099;42.636;23.198;2022-11-23T06:30:20;130.43;;;21.10;;
37205;SDS011;23099;42.636;23.198;2022-11-23T06:32:46;49.97;;;16.60;;
37205;SDS011;23099;42.636;23.198;2022-11-23T06:35:13;47.92;;;18.65;;
37205;SDS011;23099;42.636;23.198;2022-11-23T06:37:40;32.78;;;18.58;;
37205;SDS011;23099;42.636;23.198;2022-11-23T06:40:09;31.85;;;19.00;;
37205;SDS011;23099;42.636;23.198;2022-11-23T06:42:37;30.92;;;17.48;;
37205;SDS011;23099;42.636;23.198;2022-11-23T06:45:04;23.48;;;13.50;;
37205;SDS011;23099;42.636;23.198;2022-11-23T06:47:32;33.83;;;17.90;;
37205;SDS011;23099;42.636;23.198;2022-11-23T06:49:58;30.50;;;17.65;;
37205;SDS011;23099;42.636;23.198;2022-11-23T06:52:25;25.70;;;16.00;;
37205;SDS011;23099;42.636;23.198;2022-11-23T06:54:52;26.23;;;15.95;;
37205;SDS011;23099;42.636;23.198;2022-11-23T06:57:20;23.25;;;14.10;;
37205;SDS011;23099;42.636;23.198;2022-11-23T06:59:47;31.70;;;16.88;;
37205;SDS011;23099;42.636;23.198;2022-11-23T07:02:14;29.98;;;16.63;;
37205;SDS011;23099;42.636;23.198;2022-11-23T07:04:40;28.05;;;15.60;;
37205;SDS011;23099;42.636;23.198;2022-11-23T07:07:07;25.98;;;14.43;;
37205;SDS011;23099;42.636;23.198;2022-11-23T07:09:34;21.13;;;12.45;;
37205;SDS011;23099;42.636;23.198;2022-11-23T07:12:02;21.07;;;12.67;;
37205;SDS011;23099;42.636;23.198;2022-11-23T07:14:30;18.80;;;10.77;;
37205;SDS011;23099;42.636;23.198;2022-11-23T07:16:57;15.43;;;7.93;;
37205;SDS011;23099;42.636;23.198;2022-11-23T07:19:23;18.42;;;9.90;;
37205;SDS011;23099;42.636;23.198;2022-11-23T07:21:50;18.98;;;9.95;;
37205;SDS011;23099;42.636;23.198;2022-11-23T07:24:17;10.55;;;5.00;;
37205;SDS011;23099;42.636;23.198;2022-11-23T07:26:43;6.82;;;2.33;;
37205;SDS011;23099;42.636;23.198;2022-11-23T07:29:10;14.75;;;4.53;;
37205;SDS011;23099;42.636;23.198;2022-11-23T07:31:38;25.13;;;7.05;;
37205;SDS011;23099;42.636;23.198;2022-11-23T07:34:05;3.45;;;1.38;;
37205;SDS011;23099;42.636;23.198;2022-11-23T07:36:33;7.90;;;5.90;;
37205;SDS011;23099;42.636;23.198;2022-11-23T07:39:00;20.85;;;9.23;;
37205;SDS011;23099;42.636;23.198;2022-11-23T07:41:26;23.27;;;7.70;;
37205;SDS011;23099;42.636;23.198;2022-11-23T07:43:53;7.20;;;2.05;;
37205;SDS011;23099;42.636;23.198;2022-11-23T07:46:20;10.85;;;3.95;;
37205;SDS011;23099;42.636;23.198;2022-11-23T07:48:48;6.93;;;1.58;;
37205;SDS011;23099;42.636;23.198;2022-11-23T07:51:15;5.35;;;1.20;;
37205;SDS011;23099;42.636;23.198;2022-11-23T07:56:10;6.97;;;1.00;;
37205;SDS011;23099;42.636;23.198;2022-11-23T07:58:36;4.00;;;0.70;;
37205;SDS011;23099;42.636;23.198;2022-11-23T08:01:03;5.10;;;0.80;;
37205;SDS011;23099;42.636;23.198;2022-11-23T08:03:30;3.88;;;0.68;;
37205;SDS011;23099;42.636;23.198;2022-11-23T08:05:58;3.17;;;0.50;;
37205;SDS011;23099;42.636;23.198;2022-11-23T08:08:25;2.72;;;0.50;;
37205;SDS011;23099;42.636;23.198;2022-11-23T08:10:52;4.13;;;0.68;;
37205;SDS011;23099;42.636;23.198;2022-11-23T08:13:19;3.38;;;0.40;;
37205;SDS011;23099;42.636;23.198;2022-11-23T08:15:46;3.53;;;0.45;;
37205;SDS011;23099;42.636;23.198;2022-11-23T08:18:14;2.03;;;0.50;;
37205;SDS011;23099;42.636;23.198;2022-11-23T08:20:41;3.60;;;0.60;;
37205;SDS011;23099;42.636;23.198;2022-11-23T08:23:09;2.40;;;0.50;;
37205;SDS011;23099;42.636;23.198;2022-11-23T08:25:36;5.68;;;0.65;;
37205;SDS011;23099;42.636;23.198;2022-11-23T08:28:03;4.18;;;0.60;;
37205;SDS011;23099;42.636;23.198;2022-11-23T08:30:30;6.05;;;0.50;;
37205;SDS011;23099;42.636;23.198;2022-11-23T08:32:58;3.78;;;0.60;;
37205;SDS011;23099;42.636;23.198;2022-11-23T08:35:27;3.03;;;0.50;;
37205;SDS011;23099;42.636;23.198;2022-11-23T08:37:54;1.23;;;0.40;;
37205;SDS011;23099;42.636;23.198;2022-11-23T08:40:22;4.43;;;0.60;;
37205;SDS011;23099;42.636;23.198;2022-11-23T08:42:48;5.20;;;0.60;;
37205;SDS011;23099;42.636;23.198;2022-11-23T08:45:15;4.25;;;1.00;;
37205;SDS011;23099;42.636;23.198;2022-11-23T08:47:42;10.52;;;1.75;;
37205;SDS011;23099;42.636;23.198;2022-11-23T08:50:09;5.32;;;0.90;;
37205;SDS011;23099;42.636;23.198;2022-11-23T08:52:36;3.42;;;0.60;;
37205;SDS011;23099;42.636;23.198;2022-11-23T08:55:03;3.72;;;0.55;;
37205;SDS011;23099;42.636;23.198;2022-11-23T08:57:31;5.88;;;1.30;;
37205;SDS011;23099;42.636;23.198;2022-11-23T08:59:58;3.47;;;0.70;;
37205;SDS011;23099;42.636;23.198;2022-11-23T09:02:25;5.03;;;0.82;;
37205;SDS011;23099;42.636;23.198;2022-11-23T09:04:52;3.63;;;0.85;;
37205;SDS011;23099;42.636;23.198;2022-11-23T09:07:18;6.68;;;3.95;;
37205;SDS011;23099;42.636;23.198;2022-11-23T09:09:45;4.72;;;0.63;;
37205;SDS011;23099;42.636;23.198;2022-11-23T09:12:12;3.80;;;0.40;;
37205;SDS011;23099;42.636;23.198;2022-11-23T09:14:40;4.32;;;0.90;;
37205;SDS011;23099;42.636;23.198;2022-11-23T09:17:07;2.05;;;0.50;;
37205;SDS011;23099;42.636;23.198;2022-11-23T09:19:33;3.42;;;0.80;;
37205;SDS011;23099;42.636;23.198;2022-11-23T09:22:00;2.80;;;0.30;;
37205;SDS011;23099;42.636;23.198;2022-11-23T09:24:27;3.35;;;0.50;;
37205;SDS011;23099;42.636;23.198;2022-11-23T09:26:54;5.90;;;0.70;;
37205;SDS011;23099;42.636;23.198;2022-11-23T09:29:22;2.72;;;0.60;;
37205;SDS011;23099;42.636;23.198;2022-11-23T09:31:50;2.38;;;0.40;;
37205;SDS011;23099;42.636;23.198;2022-11-23T09:34:17;2.72;;;0.43;;
37205;SDS011;23099;42.636;23.198;2022-11-23T09:36:44;3.60;;;0.40;;
37205;SDS011;23099;42.636;23.198;2022-11-23T09:39:11;5.55;;;0.60;;
37205;SDS011;23099;42.636;23.198;2022-11-23T09:41:44;5.28;;;0.60;;
37205;SDS011;23099;42.636;23.198;2022-11-23T09:44:41;5.00;;;0.52;;
37205;SDS011;23099;42.636;23.198;2022-11-23T09:47:31;14.23;;;4.20;;
37205;SDS011;23099;42.636;23.198;2022-11-23T09:50:11;2.55;;;0.30;;
37205;SDS011;23099;42.636;23.198;2022-11-23T09:52:43;16.70;;;4.55;;
37205;SDS011;23099;42.636;23.198;2022-11-23T09:55:14;29.45;;;7.82;;
37205;SDS011;23099;42.636;23.198;2022-11-23T09:57:45;5.72;;;0.70;;
37205;SDS011;23099;42.636;23.198;2022-11-23T10:00:17;7.60;;;1.70;;
37205;SDS011;23099;42.636;23.198;2022-11-23T10:02:56;5.25;;;0.50;;
37205;SDS011;23099;42.636;23.198;2022-11-23T10:05:23;4.50;;;0.50;;
37205;SDS011;23099;42.636;23.198;2022-11-23T10:08:00;6.60;;;0.90;;
37205;SDS011;23099;42.636;23.198;2022-11-23T10:10:35;6.38;;;1.45;;
37205;SDS011;23099;42.636;23.198;2022-11-23T10:13:11;3.95;;;0.40;;
37205;SDS011;23099;42.636;23.198;2022-11-23T10:15:52;6.78;;;0.90;;
37205;SDS011;23099;42.636;23.198;2022-11-23T10:18:34;12.55;;;2.30;;
37205;SDS011;23099;42.636;23.198;2022-11-23T10:21:10;7.33;;;1.13;;
37205;SDS011;23099;42.636;23.198;2022-11-23T10:23:46;11.32;;;1.45;;
37205;SDS011;23099;42.636;23.198;2022-11-23T10:26:19;3.42;;;0.30;;
37205;SDS011;23099;42.636;23.198;2022-11-23T10:28:49;14.48;;;1.70;;
37205;SDS011;23099;42.636;23.198;2022-11-23T10:31:17;8.45;;;1.77;;
37205;SDS011;23099;42.636;23.198;2022-11-23T10:33:52;4.10;;;0.50;;
37205;SDS011;23099;42.636;23.198;2022-11-23T10:36:21;3.30;;;0.50;;
37205;SDS011;23099;42.636;23.198;2022-11-23T10:38:48;5.85;;;0.70;;
37205;SDS011;23099;42.636;23.198;2022-11-23T10:41:18;7.60;;;1.00;;
37205;SDS011;23099;42.636;23.198;2022-11-23T10:43:46;1.75;;;0.30;;
37205;SDS011;23099;42.636;23.198;2022-11-23T10:46:21;3.85;;;0.50;;
37205;SDS011;23099;42.636;23.198;2022-11-23T10:48:54;2.05;;;0.35;;
37205;SDS011;23099;42.636;23.198;2022-11-23T10:51:24;3.35;;;0.25;;
37205;SDS011;23099;42.636;23.198;2022-11-23T10:53:56;13.75;;;1.63;;
37205;SDS011;23099;42.636;23.198;2022-11-23T11:00:03;2.83;;;0.30;;
37205;SDS011;23099;42.636;23.198;2022-11-23T11:02:40;3.78;;;0.55;;
37205;SDS011;23099;42.636;23.198;2022-11-23T11:05:13;3.90;;;0.60;;
37205;SDS011;23099;42.636;23.198;2022-11-23T11:07:49;7.00;;;0.80;;
37205;SDS011;23099;42.636;23.198;2022-11-23T11:15:57;3.55;;;0.40;;
37205;SDS011;23099;42.636;23.198;2022-11-23T11:18:26;3.55;;;0.50;;
37205;SDS011;23099;42.636;23.198;2022-11-23T11:20:57;4.43;;;0.43;;
37205;SDS011;23099;42.636;23.198;2022-11-23T11:23:25;2.80;;;0.38;;
37205;SDS011;23099;42.636;23.198;2022-11-23T11:26:01;5.20;;;0.88;;
37205;SDS011;23099;42.636;23.198;2022-11-23T11:28:35;3.45;;;0.30;;
37205;SDS011;23099;42.636;23.198;2022-11-23T11:31:10;2.53;;;0.50;;
37205;SDS011;23099;42.636;23.198;2022-11-23T11:33:49;2.42;;;0.30;;
37205;SDS011;23099;42.636;23.198;2022-11-23T11:36:23;3.13;;;0.40;;
37205;SDS011;23099;42.636;23.198;2022-11-23T11:38:53;1.30;;;0.30;;
37205;SDS011;23099;42.636;23.198;2022-11-23T11:41:23;3.97;;;0.60;;
37205;SDS011;23099;42.636;23.198;2022-11-23T11:43:55;1.60;;;0.40;;
37205;SDS011;23099;42.636;23.198;2022-11-23T11:46:28;2.78;;;0.40;;
37205;SDS011;23099;42.636;23.198;2022-11-23T11:49:02;4.03;;;0.82;;
37205;SDS011;23099;42.636;23.198;2022-11-23T11:51:35;4.85;;;0.60;;
37205;SDS011;23099;42.636;23.198;2022-11-23T11:54:09;4.03;;;0.70;;
37205;SDS011;23099;42.636;23.198;2022-11-23T11:56:43;13.20;;;4.85;;
37205;SDS011;23099;42.636;23.198;2022-11-23T11:59:13;2.78;;;0.43;;
37205;SDS011;23099;42.636;23.198;2022-11-23T12:01:47;2.58;;;0.40;;
37205;SDS011;23099;42.636;23.198;2022-11-23T12:04:22;3.10;;;0.60;;
37205;SDS011;23099;42.636;23.198;2022-11-23T12:07:01;3.97;;;0.55;;
37205;SDS011;23099;42.636;23.198;2022-11-23T12:09:34;3.50;;;0.50;;
37205;SDS011;23099;42.636;23.198;2022-11-23T12:12:06;2.72;;;0.28;;
37205;SDS011;23099;42.636;23.198;2022-11-23T12:14:38;2.40;;;0.50;;
37205;SDS011;23099;42.636;23.198;2022-11-23T12:17:05;2.85;;;0.50;;
37205;SDS011;23099;42.636;23.198;2022-11-23T12:19:43;3.10;;;0.40;;
37205;SDS011;23099;42.636;23.198;2022-11-23T12:22:25;5.20;;;0.80;;
37205;SDS011;23099;42.636;23.198;2022-11-23T12:25:05;2.10;;;0.38;;
37205;SDS011;23099;42.636;23.198;2022-11-23T12:27:42;8.07;;;1.17;;
37205;SDS011;23099;42.636;23.198;2022-11-23T12:30:21;2.35;;;0.40;;
37205;SDS011;23099;42.636;23.198;2022-11-23T12:32:57;2.38;;;0.40;;
37205;SDS011;23099;42.636;23.198;2022-11-23T12:35:45;9.15;;;1.48;;
37205;SDS011;23099;42.636;23.198;2022-11-23T12:38:22;14.05;;;2.58;;
37205;SDS011;23099;42.636;23.198;2022-11-23T12:41:00;11.25;;;1.73;;
37205;SDS011;23099;42.636;23.198;2022-11-23T12:43:44;11.57;;;1.95;;
37205;SDS011;23099;42.636;23.198;2022-11-23T12:46:21;2.78;;;0.25;;
37205;SDS011;23099;42.636;23.198;2022-11-23T12:49:00;2.67;;;0.35;;
37205;SDS011;23099;42.636;23.198;2022-11-23T12:51:40;5.15;;;0.60;;
37205;SDS011;23099;42.636;23.198;2022-11-23T12:54:24;2.33;;;0.35;;
37205;SDS011;23099;42.636;23.198;2022-11-23T12:57:03;12.98;;;1.77;;
37205;SDS011;23099;42.636;23.198;2022-11-23T12:59:40;3.90;;;0.40;;
37205;SDS011;23099;42.636;23.198;2022-11-23T13:02:12;9.18;;;1.25;;
37205;SDS011;23099;42.636;23.198;2022-11-23T13:05:08;6.13;;;0.88;;
37205;SDS011;23099;42.636;23.198;2022-11-23T13:10:49;9.00;;;1.05;;
37205;SDS011;23099;42.636;23.198;2022-11-23T13:13:26;18.10;;;4.22;;
37205;SDS011;23099;42.636;23.198;2022-11-23T13:18:53;10.30;;;1.88;;
37205;SDS011;23099;42.636;23.198;2022-11-23T13:21:28;10.52;;;2.20;;
37205;SDS011;23099;42.636;23.198;2022-11-23T13:23:59;9.95;;;1.98;;
37205;SDS011;23099;42.636;23.198;2022-11-23T13:26:28;15.00;;;3.35;;
37205;SDS011;23099;42.636;23.198;2022-11-23T13:28:55;4.75;;;0.60;;
37205;SDS011;23099;42.636;23.198;2022-11-23T13:31:25;7.60;;;1.00;;
37205;SDS011;23099;42.636;23.198;2022-11-23T13:33:55;7.22;;;0.93;;
37205;SDS011;23099;42.636;23.198;2022-11-23T13:36:33;8.45;;;1.33;;
37205;SDS011;23099;42.636;23.198;2022-11-23T13:42:22;14.68;;;2.90;;
37205;SDS011;23099;42.636;23.198;2022-11-23T13:48:09;14.63;;;2.65;;
37205;SDS011;23099;42.636;23.198;2022-11-23T13:50:54;4.40;;;0.95;;
37205;SDS011;23099;42.636;23.198;2022-11-23T13:53:23;2.33;;;0.90;;
37205;SDS011;23099;42.636;23.198;2022-11-23T13:55:52;3.00;;;0.77;;
37205;SDS011;23099;42.636;23.198;2022-11-23T14:01:24;5.38;;;2.25;;
37205;SDS011;23099;42.636;23.198;2022-11-23T14:04:24;3.35;;;0.88;;
37205;SDS011;23099;42.636;23.198;2022-11-23T14:06:52;3.35;;;0.60;;
37205;SDS011;23099;42.636;23.198;2022-11-23T14:09:23;3.13;;;0.60;;
37205;SDS011;23099;42.636;23.198;2022-11-23T14:11:57;2.80;;;0.68;;
37205;SDS011;23099;42.636;23.198;2022-11-23T14:14:32;2.20;;;0.60;;
37205;SDS011;23099;42.636;23.198;2022-11-23T14:20:23;4.03;;;0.70;;
37205;SDS011;23099;42.636;23.198;2022-11-23T14:23:01;5.20;;;0.98;;
37205;SDS011;23099;42.636;23.198;2022-11-23T14:25:46;2.83;;;0.80;;
37205;SDS011;23099;42.636;23.198;2022-11-23T14:28:25;4.07;;;0.80;;
37205;SDS011;23099;42.636;23.198;2022-11-23T14:31:10;3.13;;;0.60;;
37205;SDS011;23099;42.636;23.198;2022-11-23T14:33:46;4.75;;;0.80;;
37205;SDS011;23099;42.636;23.198;2022-11-23T14:36:21;10.18;;;2.17;;
37205;SDS011;23099;42.636;23.198;2022-11-23T14:39:23;7.00;;;2.42;;
37205;SDS011;23099;42.636;23.198;2022-11-23T14:42:02;8.05;;;1.42;;
37205;SDS011;23099;42.636;23.198;2022-11-23T14:44:35;5.13;;;1.10;;
37205;SDS011;23099;42.636;23.198;2022-11-23T14:47:07;6.50;;;1.30;;
37205;SDS011;23099;42.636;23.198;2022-11-23T14:49:36;5.88;;;1.40;;
37205;SDS011;23099;42.636;23.198;2022-11-23T14:52:14;10.85;;;2.38;;
37205;SDS011;23099;42.636;23.198;2022-11-23T14:54:45;16.23;;;4.55;;
37205;SDS011;23099;42.636;23.198;2022-11-23T14:57:14;16.48;;;5.18;;
37205;SDS011;23099;42.636;23.198;2022-11-23T14:59:41;10.60;;;2.95;;
37205;SDS011;23099;42.636;23.198;2022-11-23T15:02:16;36.65;;;7.55;;
37205;SDS011;23099;42.636;23.198;2022-11-23T15:04:55;35.47;;;7.30;;
37205;SDS011;23099;42.636;23.198;2022-11-23T15:07:26;30.75;;;8.80;;
37205;SDS011;23099;42.636;23.198;2022-11-23T15:10:04;18.33;;;5.38;;
37205;SDS011;23099;42.636;23.198;2022-11-23T15:12:42;34.70;;;10.00;;
37205;SDS011;23099;42.636;23.198;2022-11-23T15:15:15;26.48;;;7.68;;
37205;SDS011;23099;42.636;23.198;2022-11-23T15:17:50;11.57;;;3.03;;
37205;SDS011;23099;42.636;23.198;2022-11-23T15:20:18;33.35;;;8.98;;
37205;SDS011;23099;42.636;23.198;2022-11-23T15:22:47;14.52;;;3.20;;
37205;SDS011;23099;42.636;23.198;2022-11-23T15:25:15;9.25;;;1.83;;
37205;SDS011;23099;42.636;23.198;2022-11-23T15:27:44;15.85;;;4.20;;